createdAt,value
2023-04-07T00:00:55.302Z,15.93
2023-04-07T00:03:58.466Z,14.73
2023-04-07T00:07:01.594Z,14.53
2023-04-07T00:10:04.326Z,13.43
2023-04-07T00:13:06.803Z,13.38
2023-04-07T00:16:09.366Z,13.65
2023-04-07T00:19:12.186Z,13.95
2023-04-07T00:22:14.728Z,13.77
2023-04-07T00:25:17.173Z,14.07
2023-04-07T00:28:19.642Z,13.68
2023-04-07T00:31:22.310Z,12.02
2023-04-07T00:34:24.954Z,10.90
2023-04-07T00:37:27.408Z,13.57
2023-04-07T00:40:30.923Z,13.57
2023-04-07T00:43:33.650Z,12.40
2023-04-07T00:46:36.114Z,12.25
2023-04-07T00:49:38.864Z,12.35
2023-04-07T00:52:41.569Z,11.50
2023-04-07T00:55:44.145Z,13.23
2023-04-07T00:58:46.836Z,12.40
2023-04-07T01:02:05.895Z,14.98
2023-04-07T01:05:17.706Z,13.45
2023-04-07T01:08:30.993Z,15.40
2023-04-07T01:11:42.650Z,14.70
2023-04-07T01:14:54.646Z,15.07
2023-04-07T01:18:31.732Z,12.45
2023-04-07T01:21:35.488Z,11.40
2023-04-07T01:24:59.777Z,12.83
2023-04-07T01:28:03.303Z,12.40
2023-04-07T01:31:09.667Z,11.77
2023-04-07T01:34:13.571Z,12.57
2023-04-07T01:37:16.654Z,13.07
2023-04-07T01:40:21.797Z,13.83
2023-04-07T01:43:24.599Z,13.57
2023-04-07T01:46:27.355Z,12.85
2023-04-07T01:49:32.113Z,12.75
2023-04-07T01:52:35.636Z,13.15
2023-04-07T01:55:38.487Z,13.67
2023-04-07T01:58:43.913Z,14.70
2023-04-07T02:01:51.125Z,12.60
2023-04-07T02:05:03.155Z,12.20
2023-04-07T02:08:08.449Z,12.25
2023-04-07T02:11:12.044Z,12.47
2023-04-07T02:14:15.687Z,13.15
2023-04-07T02:17:38.009Z,12.98
2023-04-07T02:20:43.654Z,13.48
2023-04-07T02:23:47.248Z,13.95
2023-04-07T02:26:49.937Z,14.33
2023-04-07T02:29:54.451Z,16.27
2023-04-07T02:32:59.402Z,15.20
2023-04-07T02:36:01.792Z,12.60
2023-04-07T02:39:04.403Z,14.73
2023-04-07T02:42:06.938Z,14.20
2023-04-07T02:45:10.104Z,14.85
2023-04-07T02:48:13.043Z,13.70
2023-04-07T02:51:16.043Z,13.75
2023-04-07T02:54:18.732Z,14.05
2023-04-07T02:57:21.602Z,13.87
2023-04-07T03:00:27.037Z,13.63
2023-04-07T03:03:42.568Z,14.88
2023-04-07T03:06:52.741Z,13.98
2023-04-07T03:09:56.405Z,14.57
2023-04-07T03:12:58.969Z,15.10
2023-04-07T03:16:01.761Z,14.73
2023-04-07T03:19:09.750Z,15.80
2023-04-07T03:22:16.239Z,15.07
2023-04-07T03:25:26.675Z,14.85
2023-04-07T03:28:30.562Z,14.80
2023-04-07T03:31:33.381Z,14.95
2023-04-07T03:34:35.990Z,13.68
2023-04-07T03:37:38.506Z,15.02
2023-04-07T03:40:46.413Z,14.35
2023-04-07T03:43:49.700Z,14.73
2023-04-07T03:46:53.879Z,15.02
2023-04-07T03:49:58.899Z,15.38
2023-04-07T03:53:03.823Z,16.55
2023-04-07T03:56:07.501Z,16.40
2023-04-07T03:59:20.408Z,12.50
2023-04-07T04:02:31.627Z,13.68
2023-04-07T04:05:34.985Z,14.10
2023-04-07T04:08:37.818Z,15.05
2023-04-07T04:11:41.576Z,14.80
2023-04-07T04:14:44.302Z,14.00
2023-04-07T04:17:49.413Z,13.73
2023-04-07T04:20:53.503Z,13.15
2023-04-07T04:23:56.246Z,14.35
2023-04-07T04:26:58.855Z,16.15
2023-04-07T04:30:01.682Z,13.20
2023-04-07T04:33:12.208Z,15.70
2023-04-07T04:36:26.591Z,16.80
2023-04-07T04:39:34.877Z,18.75
2023-04-07T04:42:38.343Z,21.67
2023-04-07T04:45:43.317Z,21.03
2023-04-07T04:48:48.851Z,20.55
2023-04-07T04:51:53.919Z,22.00
2023-04-07T04:54:56.418Z,17.50
2023-04-07T04:57:59.731Z,18.50
2023-04-07T05:01:13.649Z,19.07
2023-04-07T05:04:22.399Z,20.30
2023-04-07T05:07:33.608Z,24.15
2023-04-07T05:10:40.185Z,21.08
2023-04-07T05:13:46.779Z,21.30
2023-04-07T05:16:49.765Z,20.00
2023-04-07T05:19:56.805Z,19.75
2023-04-07T05:23:09.441Z,25.20
2023-04-07T05:26:13.180Z,28.17
2023-04-07T05:29:16.457Z,31.90
2023-04-07T05:32:19.591Z,23.90
2023-04-07T05:35:22.285Z,22.13
2023-04-07T05:38:30.012Z,26.92
2023-04-07T05:41:36.535Z,26.25
2023-04-07T05:44:39.504Z,28.80
2023-04-07T05:47:42.091Z,28.37
2023-04-07T05:50:46.708Z,35.72
2023-04-07T05:53:52.929Z,40.65
2023-04-07T05:56:58.508Z,31.70
2023-04-07T06:00:02.905Z,42.05
2023-04-07T06:03:06.490Z,31.23
2023-04-07T06:06:18.814Z,29.35
2023-04-07T06:09:25.133Z,31.30
2023-04-07T06:12:27.597Z,26.55
2023-04-07T06:15:30.048Z,22.33
2023-04-07T06:18:32.691Z,27.20
2023-04-07T06:21:35.577Z,23.35
2023-04-07T06:24:41.572Z,22.85
2023-04-07T06:27:43.990Z,23.25
2023-04-07T06:30:47.204Z,28.70
2023-04-07T06:33:51.679Z,27.77
2023-04-07T06:36:54.126Z,28.48
2023-04-07T06:39:56.544Z,33.22
2023-04-07T06:42:59.244Z,42.25
2023-04-07T06:46:14.013Z,43.47
2023-04-07T06:49:16.779Z,28.20
2023-04-07T06:52:19.216Z,22.35
2023-04-07T06:55:21.862Z,28.30
2023-04-07T06:58:24.389Z,32.95
2023-04-07T07:01:27.938Z,25.23
2023-04-07T07:04:30.623Z,19.23
2023-04-07T07:07:33.053Z,23.40
2023-04-07T07:10:35.642Z,24.00
2023-04-07T07:13:38.082Z,29.75
2023-04-07T07:16:41.334Z,26.52
2023-04-07T07:19:43.978Z,19.37
2023-04-07T07:22:46.490Z,17.50
2023-04-07T07:25:48.978Z,23.63
2023-04-07T07:28:51.529Z,19.65
2023-04-07T07:31:55.090Z,17.33
2023-04-07T07:34:59.368Z,16.20
2023-04-07T07:38:01.944Z,14.18
2023-04-07T07:41:04.640Z,15.85
2023-04-07T07:44:07.237Z,16.42
2023-04-07T07:47:09.807Z,17.50
2023-04-07T07:50:12.514Z,20.17
2023-04-07T07:53:15.642Z,16.80
2023-04-07T07:56:18.102Z,13.98
2023-04-07T07:59:21.645Z,15.70
2023-04-07T08:02:29.822Z,18.77
2023-04-07T08:05:32.408Z,16.30
2023-04-07T08:08:35.967Z,18.23
2023-04-07T08:11:38.426Z,18.15
2023-04-07T08:14:41.390Z,18.58
2023-04-07T08:17:43.941Z,19.15
2023-04-07T08:20:48.882Z,20.30
2023-04-07T08:23:51.501Z,19.85
2023-04-07T08:26:53.990Z,21.30
2023-04-07T08:30:01.099Z,20.75
2023-04-07T08:33:05.703Z,21.50
2023-04-07T08:36:08.332Z,21.10
2023-04-07T08:39:11.264Z,21.00
2023-04-07T08:42:14.237Z,19.95
2023-04-07T08:45:17.756Z,20.73
2023-04-07T08:48:23.869Z,18.17
2023-04-07T08:51:33.162Z,20.37
2023-04-07T08:54:35.981Z,19.20
2023-04-07T08:57:39.233Z,13.77
2023-04-07T09:00:45.929Z,15.20
2023-04-07T09:03:49.035Z,17.33
2023-04-07T09:06:51.995Z,13.07
2023-04-07T09:09:55.599Z,11.38
2023-04-07T09:12:59.654Z,16.88
2023-04-07T09:16:03.133Z,14.88
2023-04-07T09:19:06.413Z,14.40
2023-04-07T09:22:12.450Z,11.27
2023-04-07T09:25:19.791Z,20.88
2023-04-07T09:28:23.088Z,18.17
2023-04-07T09:31:45.446Z,8.98
2023-04-07T09:34:58.725Z,9.63
2023-04-07T09:38:03.603Z,12.03
2023-04-07T09:41:12.270Z,10.55
2023-04-07T09:44:14.746Z,10.10
2023-04-07T09:47:18.041Z,9.82
2023-04-07T09:50:46.018Z,9.27
2023-04-07T09:53:52.621Z,9.30
2023-04-07T09:56:55.777Z,7.90
2023-04-07T09:59:59.587Z,7.00
2023-04-07T10:03:04.256Z,8.50
2023-04-07T10:06:07.490Z,10.45
2023-04-07T10:09:11.627Z,9.83
2023-04-07T10:12:15.053Z,8.40
2023-04-07T10:15:17.568Z,8.88
2023-04-07T10:18:21.076Z,8.43
2023-04-07T10:21:23.609Z,6.47
2023-04-07T10:24:55.341Z,7.80
2023-04-07T10:28:05.359Z,11.35
2023-04-07T10:31:08.293Z,10.52
2023-04-07T10:34:10.808Z,9.07
2023-04-07T10:37:14.412Z,9.05
2023-04-07T10:40:21.129Z,10.50
2023-04-07T10:43:41.866Z,9.15
2023-04-07T10:46:47.310Z,7.78
2023-04-07T10:50:18.427Z,8.88
2023-04-07T10:53:21.536Z,9.20
2023-04-07T10:56:25.856Z,8.67
2023-04-07T10:59:32.232Z,8.63
2023-04-07T11:02:35.786Z,8.25
2023-04-07T11:05:39.043Z,11.23
2023-04-07T11:08:45.683Z,9.95
2023-04-07T11:11:51.707Z,9.33
2023-04-07T11:14:54.282Z,9.95
2023-04-07T11:18:23.377Z,9.55
2023-04-07T11:21:26.127Z,11.30
2023-04-07T11:24:40.406Z,9.68
2023-04-07T11:27:44.612Z,9.40
2023-04-07T11:30:52.882Z,7.88
2023-04-07T11:33:57.166Z,7.97
2023-04-07T11:37:21.777Z,6.60
2023-04-07T11:40:37.285Z,7.40
2023-04-07T11:43:42.183Z,6.73
2023-04-07T11:47:03.594Z,8.93
2023-04-07T11:50:07.577Z,8.10
2023-04-07T11:53:11.227Z,7.93
2023-04-07T11:56:18.958Z,10.15
2023-04-07T11:59:23.769Z,9.90
2023-04-07T12:02:33.883Z,9.68
2023-04-07T12:05:44.134Z,9.88
2023-04-07T12:08:46.637Z,10.75
2023-04-07T12:11:50.331Z,11.13
2023-04-07T12:14:53.135Z,13.23
2023-04-07T12:17:55.907Z,11.00
2023-04-07T12:20:59.139Z,11.93
2023-04-07T12:24:02.185Z,11.60
2023-04-07T12:27:04.707Z,13.02
2023-04-07T12:30:08.221Z,13.40
2023-04-07T12:33:10.758Z,11.52
2023-04-07T12:36:13.398Z,12.05
2023-04-07T12:39:16.627Z,14.60
2023-04-07T12:42:19.101Z,13.07
2023-04-07T12:45:21.977Z,12.33
2023-04-07T12:48:26.742Z,12.15
2023-04-07T12:51:29.436Z,12.45
2023-04-07T12:54:31.962Z,14.07
2023-04-07T12:57:34.860Z,12.02
2023-04-07T13:00:37.381Z,12.23
2023-04-07T13:03:40.206Z,11.70
2023-04-07T13:06:42.759Z,11.80
2023-04-07T13:09:45.260Z,10.85
2023-04-07T13:12:48.093Z,11.75
2023-04-07T13:15:50.770Z,12.23
2023-04-07T13:18:53.497Z,12.80
2023-04-07T13:21:56.834Z,13.45
2023-04-07T13:25:00.754Z,13.55
2023-04-07T13:28:04.087Z,13.70
2023-04-07T13:31:07.607Z,11.40
2023-04-07T13:34:10.332Z,11.32
2023-04-07T13:37:12.896Z,11.10
2023-04-07T13:40:15.436Z,11.40
2023-04-07T13:43:19.046Z,12.73
2023-04-07T13:46:28.508Z,11.53
2023-04-07T13:49:31.844Z,9.80
2023-04-07T13:52:35.454Z,10.10
2023-04-07T13:55:39.227Z,11.60
2023-04-07T13:58:41.748Z,11.00
2023-04-07T14:01:44.424Z,11.67
2023-04-07T14:04:47.457Z,9.63
2023-04-07T14:07:51.106Z,11.02
2023-04-07T14:10:54.021Z,12.15
2023-04-07T14:13:57.112Z,13.85
2023-04-07T14:16:59.646Z,10.73
2023-04-07T14:20:02.139Z,12.90
2023-04-07T14:23:04.642Z,11.30
2023-04-07T14:26:10.211Z,12.52
2023-04-07T14:29:13.147Z,12.82
2023-04-07T14:32:16.779Z,12.17
2023-04-07T14:35:19.230Z,12.00
2023-04-07T14:38:25.907Z,11.80
2023-04-07T14:41:28.516Z,13.68
2023-04-07T14:44:31.714Z,15.27
2023-04-07T14:47:34.311Z,13.90
2023-04-07T14:50:37.945Z,13.88
2023-04-07T14:53:42.117Z,13.95
2023-04-07T14:56:45.093Z,13.85
2023-04-07T14:59:47.585Z,11.27
2023-04-07T15:02:50.783Z,13.40
2023-04-07T15:05:53.449Z,12.57
2023-04-07T15:08:56.110Z,13.15
2023-04-07T15:12:00.381Z,11.35
2023-04-07T15:15:02.900Z,12.75
2023-04-07T15:18:05.420Z,11.60
2023-04-07T15:21:11.596Z,12.25
2023-04-07T15:24:15.996Z,12.90
2023-04-07T15:27:18.987Z,13.35
2023-04-07T15:30:22.717Z,14.48
2023-04-07T15:33:25.172Z,13.40
2023-04-07T15:36:27.609Z,12.10
2023-04-07T15:39:30.251Z,11.63
2023-04-07T15:42:35.652Z,13.57
2023-04-07T15:45:44.552Z,13.85
2023-04-07T15:48:47.995Z,17.53
2023-04-07T15:51:50.456Z,14.18
2023-04-07T15:54:52.938Z,16.17
2023-04-07T15:57:55.425Z,17.98
2023-04-07T16:01:00.234Z,17.08
2023-04-07T16:04:02.870Z,12.13
2023-04-07T16:07:05.447Z,12.27
2023-04-07T16:10:08.570Z,12.35
2023-04-07T16:13:11.278Z,12.63
2023-04-07T16:16:13.772Z,13.95
2023-04-07T16:19:16.355Z,13.80
2023-04-07T16:22:18.987Z,15.38
2023-04-07T16:25:21.596Z,13.85
2023-04-07T16:28:24.479Z,16.10
2023-04-07T16:31:27.564Z,17.17
2023-04-07T16:34:30.663Z,18.63
2023-04-07T16:37:33.055Z,19.65
2023-04-07T16:40:35.938Z,17.13
2023-04-07T16:43:38.679Z,16.58
2023-04-07T16:46:41.556Z,19.73
2023-04-07T16:49:44.360Z,17.30
2023-04-07T16:52:47.771Z,15.55
2023-04-07T16:55:50.295Z,16.70
2023-04-07T16:58:52.913Z,16.35
2023-04-07T17:01:55.466Z,17.77
2023-04-07T17:04:58.094Z,17.07
2023-04-07T17:08:00.702Z,16.55
2023-04-07T17:11:07.409Z,16.92
2023-04-07T17:14:09.912Z,17.63
2023-04-07T17:17:12.595Z,15.07
2023-04-07T17:20:19.486Z,16.63
2023-04-07T17:23:22.372Z,16.38
2023-04-07T17:26:24.929Z,18.50
2023-04-07T17:29:30.127Z,18.00
2023-04-07T17:32:32.624Z,17.05
2023-04-07T17:35:35.406Z,15.47
2023-04-07T17:38:37.934Z,19.35
2023-04-07T17:41:40.790Z,17.77
2023-04-07T17:44:43.762Z,15.85
2023-04-07T17:47:46.602Z,20.08
2023-04-07T17:50:56.336Z,18.13
2023-04-07T17:53:58.763Z,18.63
2023-04-07T17:57:01.199Z,15.05
2023-04-07T18:00:05.782Z,14.77
2023-04-07T18:03:15.654Z,16.60
2023-04-07T18:06:18.470Z,18.40
2023-04-07T18:09:21.752Z,23.38
2023-04-07T18:12:24.607Z,19.20
2023-04-07T18:15:27.847Z,15.25
2023-04-07T18:18:30.895Z,15.07
2023-04-07T18:21:35.120Z,15.43
2023-04-07T18:24:38.217Z,15.05
2023-04-07T18:27:40.688Z,20.38
2023-04-07T18:30:43.191Z,17.65
2023-04-07T18:33:45.861Z,15.82
2023-04-07T18:36:48.948Z,14.37
2023-04-07T18:39:52.256Z,14.25
2023-04-07T18:42:55.548Z,14.88
2023-04-07T18:45:58.100Z,14.43
2023-04-07T18:49:00.469Z,14.57
2023-04-07T18:52:04.153Z,13.67
2023-04-07T18:55:07.849Z,12.35
2023-04-07T18:58:10.445Z,13.30
2023-04-07T19:01:13.517Z,13.13
2023-04-07T19:04:16.642Z,13.13
2023-04-07T19:07:19.085Z,12.70
2023-04-07T19:10:22.688Z,12.93
2023-04-07T19:13:25.362Z,12.98
2023-04-07T19:16:27.986Z,12.70
2023-04-07T19:19:30.754Z,12.70
2023-04-07T19:22:33.374Z,13.40
2023-04-07T19:25:36.200Z,15.00
2023-04-07T19:28:41.160Z,15.82
2023-04-07T19:31:43.853Z,13.88
2023-04-07T19:34:46.371Z,14.63
2023-04-07T19:37:49.094Z,13.47
2023-04-07T19:40:52.267Z,15.75
2023-04-07T19:43:54.915Z,24.00
2023-04-07T19:46:57.579Z,21.23
2023-04-07T19:50:00.052Z,21.30
2023-04-07T19:53:02.532Z,18.13
2023-04-07T19:56:05.399Z,16.20
2023-04-07T19:59:08.042Z,18.42
2023-04-07T20:02:10.563Z,18.88
2023-04-07T20:05:13.140Z,13.75
2023-04-07T20:08:15.888Z,14.73
2023-04-07T20:11:18.331Z,12.88
2023-04-07T20:14:21.076Z,13.75
2023-04-07T20:17:23.566Z,14.57
2023-04-07T20:20:26.238Z,14.77
2023-04-07T20:23:28.897Z,16.33
2023-04-07T20:26:31.363Z,13.60
2023-04-07T20:29:33.877Z,14.05
2023-04-07T20:32:36.420Z,12.43
2023-04-07T20:35:39.040Z,11.63
2023-04-07T20:38:44.653Z,11.60
2023-04-07T20:41:47.813Z,11.88
2023-04-07T20:44:50.328Z,11.85
2023-04-07T20:47:52.856Z,11.73
2023-04-07T20:50:55.435Z,11.60
2023-04-07T20:53:57.971Z,11.77
2023-04-07T20:57:00.994Z,14.73
2023-04-07T21:00:05.390Z,12.32
2023-04-07T21:03:08.214Z,13.35
2023-04-07T21:06:11.397Z,11.55
2023-04-07T21:09:13.865Z,11.83
2023-04-07T21:12:16.494Z,12.35
2023-04-07T21:15:19.052Z,12.52
2023-04-07T21:18:21.532Z,13.82
2023-04-07T21:21:24.148Z,12.00
2023-04-07T21:24:26.934Z,12.33
2023-04-07T21:27:29.736Z,12.85
2023-04-07T21:30:33.292Z,12.43
2023-04-07T21:33:36.217Z,12.38
2023-04-07T21:36:38.668Z,13.13
2023-04-07T21:39:41.153Z,12.50
2023-04-07T21:42:43.719Z,11.98
2023-04-07T21:45:48.779Z,12.75
2023-04-07T21:48:55.301Z,12.75
2023-04-07T21:51:58.972Z,12.40
2023-04-07T21:55:01.486Z,12.40
2023-04-07T21:58:04.031Z,14.90
2023-04-07T22:01:06.522Z,13.13
2023-04-07T22:04:09.330Z,13.18
2023-04-07T22:07:11.987Z,13.32
2023-04-07T22:10:14.865Z,14.10
2023-04-07T22:13:17.391Z,14.32
2023-04-07T22:16:19.871Z,14.27
2023-04-07T22:19:22.455Z,13.48
2023-04-07T22:22:25.081Z,14.00
2023-04-07T22:25:27.548Z,14.83
2023-04-07T22:28:29.953Z,14.98
2023-04-07T22:31:32.728Z,13.63
2023-04-07T22:34:35.493Z,13.10
2023-04-07T22:37:37.923Z,14.45
2023-04-07T22:40:40.578Z,15.60
2023-04-07T22:43:42.946Z,15.02
2023-04-07T22:46:45.438Z,13.10
2023-04-07T22:49:48.128Z,13.52
2023-04-07T22:52:50.507Z,14.25
2023-04-07T22:55:52.927Z,11.90
2023-04-07T22:58:55.650Z,12.52
2023-04-07T23:01:58.454Z,11.43
2023-04-07T23:05:01.516Z,14.43
2023-04-07T23:08:04.023Z,12.75
2023-04-07T23:11:09.737Z,12.03
2023-04-07T23:14:12.348Z,13.25
2023-04-07T23:17:14.876Z,11.27
2023-04-07T23:20:17.494Z,11.50
2023-04-07T23:23:20.049Z,10.52
2023-04-07T23:26:22.456Z,11.80
2023-04-07T23:29:25.063Z,10.80
2023-04-07T23:32:27.566Z,10.88
2023-04-07T23:35:30.338Z,10.45
2023-04-07T23:38:32.795Z,10.98
2023-04-07T23:41:35.245Z,12.03
2023-04-07T23:44:37.696Z,9.90
2023-04-07T23:47:40.151Z,11.25
2023-04-07T23:50:43.235Z,11.57
2023-04-07T23:53:45.917Z,11.00
2023-04-07T23:56:48.350Z,10.87
2023-04-07T23:59:50.850Z,11.68
